Pullman, MI

6:17 PM EST on December 21, 2014 (GMT -0500)
Kalamazoo-Battle Creek International | Change Station
CLOSE
Current Station
Airport
Location: Kalamazoo,
Elevation: 873 ft
Nearby Weather Stations

Elev 873 ft 42.23 °N, 85.55 °W | Updated 24 minutes ago

Overcast
Overcast
32 °F
Feels Like 26 °F
N
6
Wind Variable Wind from SE

Today
High -- | Low -- °F
--% Chance of Precip.
Yesterday
High -- | Low -- °F
Precip. -- in
8:10 AM 5:14 PM
Waning Crescent, 0% visible
Pressure 30.19 in
Visibility 6.0 miles
Clouds Clear
Windchill 26 °F
Dew Point 24 °F
Humidity 73%
Rainfall 0.00 in
Snow Depth Not available.
UV 0 out of 12
Pollen .10 out of 12
Air Quality Not available.
Flu Activity Not available.
METAR KAZO 212253Z 13005KT 6SM HZ CLR 00/M04 A3015 RMK AO2 SLP222 T00001044

More Conditions Fewer Conditions

Pressure 30.19 in
Visibility 6.0 miles
Clouds Clear
Windchill 26 °F
Dew Point 24 °F
Humidity 73%
Rainfall 0.00 in
Snow Depth Not available.
UV 0 out of 12
Pollen .10 out of 12
Air Quality Not available.
Flu Activity Not available.
METAR KAZO 212253Z 13005KT 6SM HZ CLR 00/M04 A3015 RMK AO2 SLP222 T00001044

More Conditions Fewer Conditions

10-Day Weather Forecast

Almanac

Astronomy

Dec. 21, 2014 Rise Set
Actual Time
Civil Twilight
Nautical Twilight
Astronomical Twilight
Moon
Length of Visible Light
Length of Day
Tomorrow will be .
, % of the Moon is Illuminated

Today's Extremes

State Highs State Lows

Community

WunderPhotos

Upload Photos

1,779,502 photos uploaded!

WunderBlogs® & News

Nearby

Air Quality

  Air Quality AQ Index Pollutant
Not available.

Snow Depth

Station Depth Elevation

Earthquake Activity

City Distance Mag. Time & Date
Minimum magnitude displayed is 2.5.

Coastal Water Temperatures

Place Temperature

Nearby Weather Stations